Time;durP1;ratioP1;P1;durP2;ratioP2;P2;SDS_P1;SDS_P2;PMS_P1;PMS_P2;Temp;Humidity;BMP_temperature;BMP_pressure;BME280_temperature;BME280_humidity;BME280_pressure;Samples;Min_cycle;Max_cycle;Signal;HPM_P1;HPM_P2
2022/08/10 00:00:25;;;;;;;2.73;1.73;;;;;;;;;;5065168;28;20195;-80
2022/08/10 00:03:29;;;;;;;7.63;1.90;;;;;;;;;;5064442;28;20183;-80
2022/08/10 00:06:33;;;;;;;3.93;2.00;;;;;;;;;;5053334;28;20179;-80
2022/08/10 00:09:38;;;;;;;2.00;1.80;;;;;;;;;;5053540;28;20618;-80
2022/08/10 00:12:42;;;;;;;2.37;2.00;;;;;;;;;;5064686;28;20214;-80
2022/08/10 00:15:47;;;;;;;2.77;2.30;;;;;;;;;;5032737;28;20219;-79
2022/08/10 00:18:51;;;;;;;3.27;1.80;;;;;;;;;;5043886;28;20192;-79
2022/08/10 00:21:55;;;;;;;3.00;1.87;;;;;;;;;;5055472;28;20219;-79
2022/08/10 00:25:01;;;;;;;2.17;1.90;;;;;;;;;;5055248;28;20544;-79
2022/08/10 00:28:05;;;;;;;4.80;1.70;;;;;;;;;;5044039;28;20172;-78
2022/08/10 00:31:09;;;;;;;2.20;1.73;;;;;;;;;;5056111;28;20212;-79
2022/08/10 00:34:13;;;;;;;3.13;1.90;;;;;;;;;;5055256;28;20224;-79
2022/08/10 00:37:18;;;;;;;3.43;1.63;;;;;;;;;;5043919;28;20184;-79
2022/08/10 00:40:22;;;;;;;1.77;1.63;;;;;;;;;;5055162;28;20623;-80
2022/08/10 00:43:27;;;;;;;1.83;1.60;;;;;;;;;;5043947;28;20520;-79
2022/08/10 00:46:31;;;;;;;2.77;1.67;;;;;;;;;;5043512;28;20176;-80
2022/08/10 00:49:35;;;;;;;3.73;1.60;;;;;;;;;;5044220;28;20172;-79
2022/08/10 00:52:39;;;;;;;4.70;1.60;;;;;;;;;;5032506;28;20216;-79
2022/08/10 00:55:43;;;;;;;2.37;1.50;;;;;;;;;;5043949;28;20655;-80
2022/08/10 00:58:47;;;;;;;3.37;1.90;;;;;;;;;;5044157;28;20184;-79
2022/08/10 01:01:51;;;;;;;4.50;2.00;;;;;;;;;;5055263;28;20548;-80
2022/08/10 01:04:58;;;;;;;2.80;2.00;;;;;;;;;;5043623;28;20172;-80
2022/08/10 01:08:24;;;;;;;4.03;1.90;;;;;;;;;;5055416;28;20180;-79
2022/08/10 01:11:38;;;;;;;2.90;1.90;;;;;;;;;;5054899;28;20220;-80
2022/08/10 01:14:54;;;;;;;4.37;1.63;;;;;;;;;;5054912;28;20211;-80
2022/08/10 01:18:12;;;;;;;2.37;2.10;;;;;;;;;;5055529;28;20619;-80
2022/08/10 01:21:32;;;;;;;2.20;1.53;;;;;;;;;;5043040;28;20220;-80
2022/08/10 01:24:51;;;;;;;3.10;1.80;;;;;;;;;;5042983;28;20177;-80
2022/08/10 01:28:25;;;;;;;4.37;2.00;;;;;;;;;;5042860;28;20521;-79
2022/08/10 01:31:38;;;;;;;3.47;2.00;;;;;;;;;;5043123;28;20686;-80
2022/08/10 01:34:53;;;;;;;4.73;1.90;;;;;;;;;;5054290;28;20196;-79
2022/08/10 01:38:05;;;;;;;2.10;1.80;;;;;;;;;;5043334;28;20188;-80
2022/08/10 01:41:37;;;;;;;1.73;1.60;;;;;;;;;;5031150;28;20220;-80
2022/08/10 01:44:47;;;;;;;2.10;1.90;;;;;;;;;;5043369;28;20180;-80
2022/08/10 01:51:44;;;;;;;2.37;1.87;;;;;;;;;;5043023;28;20223;-80
2022/08/10 01:54:50;;;;;;;4.40;1.60;;;;;;;;;;5051900;28;20215;-79
2022/08/10 01:57:57;;;;;;;3.43;1.90;;;;;;;;;;5073902;28;20200;-79
2022/08/10 02:01:03;;;;;;;2.83;1.83;;;;;;;;;;5073512;28;20222;-80
2022/08/10 02:04:09;;;;;;;1.67;1.50;;;;;;;;;;5051480;28;20176;-79
2022/08/10 02:07:17;;;;;;;5.00;2.30;;;;;;;;;;5074607;28;20511;-79
2022/08/10 02:10:22;;;;;;;3.93;1.90;;;;;;;;;;5050755;28;20275;-79
2022/08/10 02:13:27;;;;;;;2.20;1.80;;;;;;;;;;5062414;28;20180;-80
2022/08/10 02:16:31;;;;;;;2.87;1.90;;;;;;;;;;5062176;28;20167;-80
2022/08/10 02:19:39;;;;;;;2.90;1.73;;;;;;;;;;5073643;28;20188;-80
2022/08/10 02:22:47;;;;;;;2.60;1.57;;;;;;;;;;5062265;28;20214;-79
2022/08/10 02:25:54;;;;;;;4.10;1.77;;;;;;;;;;5050837;28;20176;-80
2022/08/10 02:28:59;;;;;;;2.13;1.70;;;;;;;;;;5051009;28;20171;-79
2022/08/10 02:32:05;;;;;;;2.20;1.80;;;;;;;;;;5074030;28;20211;-80
2022/08/10 02:35:11;;;;;;;6.57;1.70;;;;;;;;;;5061454;22;20228;-87
2022/08/10 02:38:20;;;;;;;2.67;1.70;;;;;;;;;;5010597;28;20647;-88
2022/08/10 02:41:28;;;;;;;2.90;1.67;;;;;;;;;;5024027;28;20190;-87
2022/08/10 02:44:34;;;;;;;1.60;1.50;;;;;;;;;;5001737;28;20213;-88
2022/08/10 02:47:44;;;;;;;1.63;1.33;;;;;;;;;;5001688;28;20207;-88
2022/08/10 02:51:01;;;;;;;2.97;1.60;;;;;;;;;;5012905;28;20182;-87
2022/08/10 02:54:12;;;;;;;1.93;1.70;;;;;;;;;;5001537;28;20217;-88
2022/08/10 02:57:27;;;;;;;3.60;1.47;;;;;;;;;;5012859;28;20198;-88
2022/08/10 03:00:35;;;;;;;2.33;1.63;;;;;;;;;;5001449;28;20632;-88
2022/08/10 03:04:02;;;;;;;6.33;1.60;;;;;;;;;;5001639;28;20648;-87
2022/08/10 03:07:11;;;;;;;2.80;1.67;;;;;;;;;;4990405;28;20536;-87
2022/08/10 03:10:19;;;;;;;7.63;1.73;;;;;;;;;;4990183;28;20185;-87
2022/08/10 03:13:25;;;;;;;11.07;1.77;;;;;;;;;;5002563;28;20186;-86
2022/08/10 03:16:31;;;;;;;53.57;4.67;;;;;;;;;;5005460;28;20221;-82
2022/08/10 03:19:36;;;;;;;3.43;1.73;;;;;;;;;;5018409;28;20644;-83
2022/08/10 03:22:43;;;;;;;2.60;2.40;;;;;;;;;;5014011;28;20208;-82
2022/08/10 03:25:51;;;;;;;4.43;1.93;;;;;;;;;;5037451;28;20205;-82
2022/08/10 03:28:57;;;;;;;2.33;1.50;;;;;;;;;;5025721;28;20177;-82
2022/08/10 03:32:03;;;;;;;2.47;1.60;;;;;;;;;;5036661;28;20181;-82
2022/08/10 03:35:08;;;;;;;4.80;1.87;;;;;;;;;;5025477;28;20224;-82
2022/08/10 03:38:12;;;;;;;3.77;1.80;;;;;;;;;;5025593;28;20185;-83
2022/08/10 03:41:21;;;;;;;3.67;1.73;;;;;;;;;;5025333;28;20181;-82
2022/08/10 03:44:31;;;;;;;7.73;2.00;;;;;;;;;;5036110;28;20686;-82
2022/08/10 03:47:38;;;;;;;7.50;2.10;;;;;;;;;;5014016;28;20197;-82
2022/08/10 03:50:42;;;;;;;3.73;1.90;;;;;;;;;;5026078;28;20185;-82
2022/08/10 03:53:48;;;;;;;6.07;2.27;;;;;;;;;;5047753;28;20220;-83
2022/08/10 03:56:52;;;;;;;8.13;2.60;;;;;;;;;;5013675;28;20204;-82
2022/08/10 03:59:56;;;;;;;5.07;2.03;;;;;;;;;;5013868;28;20525;-82
2022/08/10 04:03:04;;;;;;;2.53;1.60;;;;;;;;;;5035940;28;20184;-82
2022/08/10 04:06:10;;;;;;;3.30;1.80;;;;;;;;;;5035961;28;20181;-82
2022/08/10 04:09:15;;;;;;;2.03;1.70;;;;;;;;;;5036271;28;20181;-82
2022/08/10 04:12:19;;;;;;;4.40;1.90;;;;;;;;;;5036451;28;20185;-82
2022/08/10 04:15:23;;;;;;;3.20;1.70;;;;;;;;;;5004549;28;20221;-83
2022/08/10 04:18:27;;;;;;;4.13;1.80;;;;;;;;;;5016130;28;20210;-82
2022/08/10 04:21:37;;;;;;;6.50;2.07;;;;;;;;;;5016889;28;20201;-82
2022/08/10 04:24:43;;;;;;;3.20;1.47;;;;;;;;;;5004001;28;20213;-82
2022/08/10 04:27:48;;;;;;;3.40;1.70;;;;;;;;;;5016846;28;20624;-82
2022/08/10 04:30:54;;;;;;;3.83;1.77;;;;;;;;;;4995293;28;20178;-82
2022/08/10 04:34:01;;;;;;;6.73;2.00;;;;;;;;;;4996986;28;20233;-83
2022/08/10 04:37:07;;;;;;;3.47;1.60;;;;;;;;;;5017858;28;20217;-82
2022/08/10 04:40:11;;;;;;;2.73;1.70;;;;;;;;;;5018047;28;20182;-83
2022/08/10 04:43:15;;;;;;;7.33;2.10;;;;;;;;;;5006816;28;20181;-82
2022/08/10 04:46:19;;;;;;;4.70;2.13;;;;;;;;;;5017852;28;20174;-83
2022/08/10 04:49:23;;;;;;;6.20;2.00;;;;;;;;;;5005070;28;20185;-82
2022/08/10 04:52:28;;;;;;;6.47;1.80;;;;;;;;;;5028544;28;20569;-85
2022/08/10 04:55:32;;;;;;;3.53;1.73;;;;;;;;;;5005959;28;20217;-83
2022/08/10 04:58:36;;;;;;;5.97;2.20;;;;;;;;;;5017624;28;20177;-83
2022/08/10 05:01:40;;;;;;;2.73;1.97;;;;;;;;;;4994789;28;20182;-83
2022/08/10 05:04:44;;;;;;;3.93;1.70;;;;;;;;;;5015859;28;20217;-83
2022/08/10 05:07:48;;;;;;;5.03;1.70;;;;;;;;;;4993742;28;20185;-83
2022/08/10 05:10:53;;;;;;;9.97;2.00;;;;;;;;;;4993554;28;20174;-84
2022/08/10 05:13:57;;;;;;;4.70;2.10;;;;;;;;;;5004549;28;20220;-83
2022/08/10 05:17:01;;;;;;;2.87;1.70;;;;;;;;;;5030193;28;20216;-83
2022/08/10 05:20:08;;;;;;;3.50;1.87;;;;;;;;;;5012766;28;20177;-83
2022/08/10 05:23:12;;;;;;;4.30;2.00;;;;;;;;;;5023628;28;20176;-83
2022/08/10 05:26:16;;;;;;;6.73;2.83;;;;;;;;;;5034875;28;20176;-83
2022/08/10 05:29:21;;;;;;;3.23;1.73;;;;;;;;;;5023683;28;20192;-83
2022/08/10 05:32:25;;;;;;;3.57;1.87;;;;;;;;;;5024430;28;20201;-83
2022/08/10 05:35:29;;;;;;;210.87;13.47;;;;;;;;;;5046262;28;20224;-83
2022/08/10 05:38:33;;;;;;;6.07;2.20;;;;;;;;;;5036008;28;20211;-83
2022/08/10 05:41:38;;;;;;;26.30;3.87;;;;;;;;;;5036221;28;20197;-83
2022/08/10 05:44:43;;;;;;;10.63;1.80;;;;;;;;;;5034984;28;20217;-86
2022/08/10 05:47:48;;;;;;;2.43;1.80;;;;;;;;;;5022114;28;20181;-85
2022/08/10 05:50:52;;;;;;;8.10;1.80;;;;;;;;;;5033004;28;20218;-85
2022/08/10 05:53:56;;;;;;;5.17;1.80;;;;;;;;;;5022222;28;20220;-85
2022/08/10 05:57:00;;;;;;;7.00;2.07;;;;;;;;;;5033228;28;20197;-85
2022/08/10 06:00:09;;;;;;;5.77;1.50;;;;;;;;;;5022508;28;20181;-86
2022/08/10 06:03:20;;;;;;;11.87;2.07;;;;;;;;;;5032403;28;20181;-85
2022/08/10 06:06:26;;;;;;;53.03;4.23;;;;;;;;;;5021784;28;20529;-85
2022/08/10 06:09:30;;;;;;;3.47;1.73;;;;;;;;;;5021683;28;20177;-85
2022/08/10 06:12:36;;;;;;;4.00;2.23;;;;;;;;;;5032840;28;20173;-85
2022/08/10 06:15:42;;;;;;;5.70;2.00;;;;;;;;;;5010640;28;20679;-85
2022/08/10 06:18:47;;;;;;;3.53;1.70;;;;;;;;;;5021896;28;20185;-85
2022/08/10 06:21:51;;;;;;;6.70;2.27;;;;;;;;;;5032926;28;20185;-85
2022/08/10 06:24:56;;;;;;;3.00;1.73;;;;;;;;;;5032796;28;20690;-85
2022/08/10 06:28:01;;;;;;;97.70;5.73;;;;;;;;;;5021522;28;20554;-85
2022/08/10 06:31:06;;;;;;;4.27;1.60;;;;;;;;;;5021987;28;20185;-86
2022/08/10 06:34:11;;;;;;;7.83;2.10;;;;;;;;;;5032912;28;20220;-85
2022/08/10 06:37:18;;;;;;;3.00;1.40;;;;;;;;;;5010277;28;20201;-85
2022/08/10 06:40:25;;;;;;;32.70;3.43;;;;;;;;;;5021314;28;20184;-86
2022/08/10 06:43:31;;;;;;;35.33;2.70;;;;;;;;;;5021412;28;20201;-85
2022/08/10 06:46:40;;;;;;;5.73;1.50;;;;;;;;;;5021043;28;20193;-86
2022/08/10 06:49:46;;;;;;;9.97;2.33;;;;;;;;;;5036486;28;20181;-85
2022/08/10 06:52:51;;;;;;;33.73;3.90;;;;;;;;;;5025246;28;20200;-86
2022/08/10 06:56:02;;;;;;;6.60;1.80;;;;;;;;;;5025105;28;20220;-86
2022/08/10 06:59:18;;;;;;;6.80;1.90;;;;;;;;;;5037051;28;20679;-86
2022/08/10 07:02:31;;;;;;;11.93;3.03;;;;;;;;;;5025345;28;20513;-86
2022/08/10 07:05:39;;;;;;;10.13;2.30;;;;;;;;;;5013551;28;20216;-86
2022/08/10 07:08:44;;;;;;;18.50;2.40;;;;;;;;;;5025073;28;20177;-86
2022/08/10 07:11:50;;;;;;;28.47;3.50;;;;;;;;;;5025269;28;20185;-86
2022/08/10 07:14:55;;;;;;;6.60;1.63;;;;;;;;;;5024610;28;20212;-86
2022/08/10 07:18:01;;;;;;;9.70;1.83;;;;;;;;;;5013672;28;20169;-86
2022/08/10 07:21:06;;;;;;;7.87;2.00;;;;;;;;;;5023772;28;20205;-85
2022/08/10 07:24:13;;;;;;;23.40;2.50;;;;;;;;;;4993955;28;20712;-85
2022/08/10 07:27:18;;;;;;;5.60;1.83;;;;;;;;;;5025113;28;20671;-86
2022/08/10 07:30:23;;;;;;;9.03;1.80;;;;;;;;;;5023042;28;20205;-85
2022/08/10 07:33:28;;;;;;;4.20;1.47;;;;;;;;;;5024387;28;20209;-85
2022/08/10 07:36:34;;;;;;;3.40;1.53;;;;;;;;;;4993673;28;20212;-85
2022/08/10 07:39:43;;;;;;;4.73;1.50;;;;;;;;;;5004505;28;20209;-86
2022/08/10 07:42:52;;;;;;;7.53;1.73;;;;;;;;;;5004569;28;20202;-86
2022/08/10 07:45:58;;;;;;;6.07;1.63;;;;;;;;;;4993704;28;20197;-86
2022/08/10 07:49:07;;;;;;;8.20;1.53;;;;;;;;;;4993470;28;20201;-86
2022/08/10 07:52:11;;;;;;;8.97;2.27;;;;;;;;;;5015931;28;20190;-86
2022/08/10 07:55:18;;;;;;;3.47;1.40;;;;;;;;;;5016157;28;20680;-87
2022/08/10 07:58:27;;;;;;;4.50;1.47;;;;;;;;;;4993649;28;20174;-87
2022/08/10 08:01:35;;;;;;;2.20;1.87;;;;;;;;;;5015530;28;20182;-87
2022/08/10 08:04:41;;;;;;;5.20;1.63;;;;;;;;;;5004218;28;20225;-87
2022/08/10 08:07:47;;;;;;;5.17;1.77;;;;;;;;;;4993017;28;20625;-87
2022/08/10 08:10:52;;;;;;;19.20;2.23;;;;;;;;;;5015215;28;20182;-86
2022/08/10 08:13:58;;;;;;;19.97;2.33;;;;;;;;;;5004305;28;20221;-86
2022/08/10 08:17:02;;;;;;;6.30;1.40;;;;;;;;;;5003897;28;20218;-86
2022/08/10 08:20:07;;;;;;;4.53;1.40;;;;;;;;;;5004229;28;20184;-85
2022/08/10 08:23:12;;;;;;;3.40;1.70;;;;;;;;;;5015525;28;20182;-85
2022/08/10 08:26:18;;;;;;;7.93;1.70;;;;;;;;;;5014284;28;20177;-86
2022/08/10 08:29:23;;;;;;;5.30;1.40;;;;;;;;;;5003890;28;20187;-86
2022/08/10 08:32:30;;;;;;;4.20;1.73;;;;;;;;;;5003473;28;20184;-85
2022/08/10 08:35:35;;;;;;;10.47;1.90;;;;;;;;;;5068501;23;20579;-82
2022/08/10 08:38:40;;;;;;;5.87;1.83;;;;;;;;;;5072618;28;20175;-83
2022/08/10 08:41:49;;;;;;;2.93;1.57;;;;;;;;;;5063398;28;20186;-82
2022/08/10 08:45:19;;;;;;;7.60;1.70;;;;;;;;;;5063691;28;20221;-82
2022/08/10 08:48:59;;;;;;;4.38;1.30;;;;;;;;;;5092569;28;20194;-82
2022/08/10 08:52:21;;;;;;;7.07;2.47;;;;;;;;;;5074940;28;20183;-82
2022/08/10 08:55:53;;;;;;;1.38;1.02;;;;;;;;;;5086611;28;20229;-82
2022/08/10 08:59:13;;;;;;;5.22;1.30;;;;;;;;;;5063329;28;20183;-83
2022/08/10 09:02:23;;;;;;;13.80;1.38;;;;;;;;;;5074496;28;20193;-82
2022/08/10 09:06:00;;;;;;;16.33;1.90;;;;;;;;;;5081253;28;20682;-82
2022/08/10 09:09:23;;;;;;;4.45;1.08;;;;;;;;;;5071607;28;20179;-81
2022/08/10 09:12:30;;;;;;;4.80;0.90;;;;;;;;;;5083043;28;20190;-82
2022/08/10 09:15:55;;;;;;;7.28;1.50;;;;;;;;;;5068933;28;20711;-82
2022/08/10 09:19:05;;;;;;;8.43;1.45;;;;;;;;;;5073416;28;20186;-82
2022/08/10 09:22:24;;;;;;;3.45;2.13;;;;;;;;;;5074176;28;20206;-82
2022/08/10 09:25:35;;;;;;;3.78;1.40;;;;;;;;;;5080819;28;20225;-82
2022/08/10 09:28:42;;;;;;;4.70;1.08;;;;;;;;;;5093734;28;20190;-82
2022/08/10 09:31:52;;;;;;;6.43;1.30;;;;;;;;;;5094786;28;20172;-82
2022/08/10 09:35:19;;;;;;;3.88;1.10;;;;;;;;;;5071486;28;20230;-82
2022/08/10 09:38:42;;;;;;;5.78;1.38;;;;;;;;;;5051148;28;20210;-83
2022/08/10 09:42:07;;;;;;;7.93;1.20;;;;;;;;;;5050607;28;20182;-83
2022/08/10 09:45:18;;;;;;;8.82;1.50;;;;;;;;;;5074732;28;20214;-82
2022/08/10 09:48:31;;;;;;;11.80;1.73;;;;;;;;;;5073933;28;20193;-82
2022/08/10 09:51:45;;;;;;;47.78;4.00;;;;;;;;;;5050897;28;20185;-83
2022/08/10 09:55:08;;;;;;;60.90;4.05;;;;;;;;;;5062666;28;20226;-83
2022/08/10 09:58:24;;;;;;;5.47;1.20;;;;;;;;;;5056993;28;20216;-83
2022/08/10 10:01:43;;;;;;;6.15;1.27;;;;;;;;;;5070577;28;20538;-83
2022/08/10 10:04:59;;;;;;;19.52;1.85;;;;;;;;;;5069271;28;20221;-83
2022/08/10 10:08:32;;;;;;;3.17;1.17;;;;;;;;;;5071256;28;20527;-83
2022/08/10 10:11:40;;;;;;;5.47;1.60;;;;;;;;;;5054835;28;20188;-83
2022/08/10 10:15:19;;;;;;;4.00;1.17;;;;;;;;;;5068587;28;20221;-83
2022/08/10 10:19:09;;;;;;;3.20;1.00;;;;;;;;;;5050591;28;20206;-83
2022/08/10 10:22:40;;;;;;;5.75;1.83;;;;;;;;;;5065162;28;20196;-83
2022/08/10 10:26:00;;;;;;;4.90;1.55;;;;;;;;;;5064445;28;20215;-83
2022/08/10 10:29:23;;;;;;;3.63;1.48;;;;;;;;;;5075632;28;20195;-83
2022/08/10 10:32:33;;;;;;;4.13;1.25;;;;;;;;;;5069269;28;20187;-83
2022/08/10 10:35:55;;;;;;;9.88;1.42;;;;;;;;;;5073513;28;20226;-83
2022/08/10 10:39:01;;;;;;;5.85;1.40;;;;;;;;;;5082047;28;20513;-83
2022/08/10 10:42:33;;;;;;;24.80;1.83;;;;;;;;;;5059870;28;20192;-83
2022/08/10 10:45:53;;;;;;;2.03;1.08;;;;;;;;;;5050192;28;20226;-83
2022/08/10 10:49:19;;;;;;;3.35;0.93;;;;;;;;;;5062883;28;20187;-83
2022/08/10 10:52:57;;;;;;;1.83;1.10;;;;;;;;;;5051171;28;20639;-83
2022/08/10 10:56:13;;;;;;;55.60;4.22;;;;;;;;;;5073821;28;20220;-83
2022/08/10 10:59:41;;;;;;;4.40;1.30;;;;;;;;;;5050938;28;20183;-83
2022/08/10 11:03:02;;;;;;;4.40;1.10;;;;;;;;;;5061889;28;20187;-83
2022/08/10 11:06:31;;;;;;;34.55;3.05;;;;;;;;;;5074516;28;20223;-83
2022/08/10 11:09:49;;;;;;;4.55;1.30;;;;;;;;;;5050973;28;20178;-83
2022/08/10 11:13:15;;;;;;;12.07;1.80;;;;;;;;;;5050164;28;20180;-83
2022/08/10 11:16:28;;;;;;;9.55;2.47;;;;;;;;;;5062078;28;20183;-83
2022/08/10 11:19:41;;;;;;;9.18;1.55;;;;;;;;;;5087515;28;20176;-83
2022/08/10 11:23:11;;;;;;;12.32;1.50;;;;;;;;;;5082248;28;20183;-83
2022/08/10 11:26:30;;;;;;;6.78;1.25;;;;;;;;;;5050665;28;20223;-84
2022/08/10 11:29:39;;;;;;;5.38;1.23;;;;;;;;;;5073023;28;20195;-83
2022/08/10 11:33:09;;;;;;;48.65;4.25;;;;;;;;;;5065581;28;20187;-83
2022/08/10 11:36:40;;;;;;;3.83;1.35;;;;;;;;;;5092817;28;20227;-83
2022/08/10 11:39:54;;;;;;;20.08;2.47;;;;;;;;;;5092538;28;20187;-83
2022/08/10 11:43:13;;;;;;;2.22;1.15;;;;;;;;;;5065598;28;20197;-84
2022/08/10 11:46:23;;;;;;;13.25;1.60;;;;;;;;;;5082810;28;20223;-84
2022/08/10 11:49:39;;;;;;;3.95;1.10;;;;;;;;;;5064979;28;20176;-84
2022/08/10 11:52:55;;;;;;;32.55;2.53;;;;;;;;;;5076596;28;20634;-84
2022/08/10 11:56:00;;;;;;;4.43;1.15;;;;;;;;;;5084389;28;20222;-84
2022/08/10 12:02:35;;;;;;;3.92;1.30;;;;;;;;;;5076257;28;20566;-83
2022/08/10 12:05:40;;;;;;;11.07;1.73;;;;;;;;;;5074205;28;20214;-83
2022/08/10 12:08:46;;;;;;;5.22;1.52;;;;;;;;;;5084570;28;20175;-83
2022/08/10 12:11:51;;;;;;;5.65;1.25;;;;;;;;;;5084267;28;20195;-84
2022/08/10 12:15:00;;;;;;;13.15;1.70;;;;;;;;;;5096128;28;20211;-84
2022/08/10 12:18:13;;;;;;;1.73;0.90;;;;;;;;;;5074011;28;20207;-83
2022/08/10 12:21:22;;;;;;;55.50;3.88;;;;;;;;;;5072753;28;20522;-84
2022/08/10 12:24:37;;;;;;;2.90;0.90;;;;;;;;;;5064444;28;20220;-83
2022/08/10 12:27:50;;;;;;;17.02;1.40;;;;;;;;;;5075587;28;20188;-84
2022/08/10 12:30:57;;;;;;;18.75;1.95;;;;;;;;;;5064434;28;20199;-83
2022/08/10 12:34:28;;;;;;;3.92;1.00;;;;;;;;;;5071270;28;20183;-84
2022/08/10 12:37:42;;;;;;;1.65;1.00;;;;;;;;;;5064530;28;20207;-84
2022/08/10 12:40:54;;;;;;;50.58;3.53;;;;;;;;;;5064562;28;20196;-84
2022/08/10 12:44:07;;;;;;;22.63;2.22;;;;;;;;;;5075725;28;20203;-84
2022/08/10 12:47:30;;;;;;;115.40;6.47;;;;;;;;;;5075339;28;20188;-84
2022/08/10 12:51:08;;;;;;;2.58;1.00;;;;;;;;;;5068761;28;20558;-84
2022/08/10 12:54:17;;;;;;;1.40;0.90;;;;;;;;;;5075536;28;20559;-84
2022/08/10 12:57:23;;;;;;;1.95;0.90;;;;;;;;;;5052653;28;20180;-84
2022/08/10 13:00:32;;;;;;;8.73;1.15;;;;;;;;;;5064693;28;20176;-84
2022/08/10 13:03:38;;;;;;;4.38;1.23;;;;;;;;;;5072381;28;20183;-84
2022/08/10 13:06:48;;;;;;;4.35;1.10;;;;;;;;;;5083949;28;20198;-84
2022/08/10 13:09:52;;;;;;;4.65;0.82;;;;;;;;;;5095566;28;20191;-82
2022/08/10 13:12:58;;;;;;;1.85;1.25;;;;;;;;;;5071770;28;20191;-84
2022/08/10 13:16:04;;;;;;;0.80;0.80;;;;;;;;;;5083774;28;20565;-84
2022/08/10 13:19:09;;;;;;;2.58;1.00;;;;;;;;;;5071806;28;20211;-83
2022/08/10 13:22:15;;;;;;;6.32;1.00;;;;;;;;;;5074386;28;20525;-83
2022/08/10 13:25:27;;;;;;;3.35;1.25;;;;;;;;;;5086221;28;20218;-84
2022/08/10 13:28:42;;;;;;;1.35;0.90;;;;;;;;;;5052143;28;20178;-83
2022/08/10 13:31:51;;;;;;;3.10;1.52;;;;;;;;;;5052748;28;20175;-83
2022/08/10 13:34:59;;;;;;;5.90;1.20;;;;;;;;;;5051942;28;20691;-84
2022/08/10 13:38:05;;;;;;;6.20;1.40;;;;;;;;;;5051159;28;20212;-84
2022/08/10 13:41:10;;;;;;;23.33;2.33;;;;;;;;;;5075154;28;20180;-83
2022/08/10 13:44:27;;;;;;;4.47;1.08;;;;;;;;;;5061892;28;20176;-84
2022/08/10 13:47:32;;;;;;;16.75;1.73;;;;;;;;;;5064524;28;20187;-84
2022/08/10 13:50:39;;;;;;;21.33;2.20;;;;;;;;;;5071156;28;20178;-83
2022/08/10 13:53:44;;;;;;;4.85;1.10;;;;;;;;;;5075484;28;20182;-83
2022/08/10 13:56:50;;;;;;;4.47;1.63;;;;;;;;;;5070247;28;20187;-84
2022/08/10 13:59:56;;;;;;;4.38;1.10;;;;;;;;;;5070519;28;20203;-84
2022/08/10 14:03:07;;;;;;;1.63;1.27;;;;;;;;;;5082962;28;20179;-83
2022/08/10 14:06:13;;;;;;;1.88;1.00;;;;;;;;;;5082840;28;20215;-84
2022/08/10 14:09:23;;;;;;;3.67;1.75;;;;;;;;;;5082080;28;20175;-83
2022/08/10 14:12:28;;;;;;;3.38;1.13;;;;;;;;;;5082108;28;20187;-83
2022/08/10 14:15:35;;;;;;;3.63;1.05;;;;;;;;;;5094534;28;20210;-83
2022/08/10 14:18:43;;;;;;;12.50;1.65;;;;;;;;;;5094916;28;20211;-83
2022/08/10 14:21:50;;;;;;;16.88;1.65;;;;;;;;;;5066039;28;20222;-84
2022/08/10 14:25:04;;;;;;;1.85;1.00;;;;;;;;;;5073332;28;20551;-83
2022/08/10 14:28:09;;;;;;;52.25;5.88;;;;;;;;;;5062141;28;20184;-84
2022/08/10 14:31:16;;;;;;;2.40;1.52;;;;;;;;;;5083340;28;20183;-83
2022/08/10 14:34:35;;;;;;;7.82;1.63;;;;;;;;;;5081332;28;20226;-83
2022/08/10 14:37:53;;;;;;;36.60;4.63;;;;;;;;;;5062506;28;20180;-83
2022/08/10 14:40:59;;;;;;;27.85;2.38;;;;;;;;;;5057730;28;20541;-83
2022/08/10 14:44:08;;;;;;;4.80;1.05;;;;;;;;;;5062108;28;20180;-84
2022/08/10 14:47:15;;;;;;;4.53;1.10;;;;;;;;;;5069668;28;20187;-83
2022/08/10 14:50:20;;;;;;;5.40;1.10;;;;;;;;;;5074994;28;20184;-84
2022/08/10 14:53:28;;;;;;;16.88;2.47;;;;;;;;;;5052455;28;20623;-83
2022/08/10 14:56:33;;;;;;;23.92;2.30;;;;;;;;;;5084577;28;20669;-84
2022/08/10 14:59:43;;;;;;;6.90;1.20;;;;;;;;;;5093130;28;20577;-84
2022/08/10 15:02:49;;;;;;;18.17;2.25;;;;;;;;;;5064907;28;20190;-84
2022/08/10 15:05:55;;;;;;;2.88;1.00;;;;;;;;;;5061462;28;20216;-83
2022/08/10 15:09:10;;;;;;;2.67;1.10;;;;;;;;;;5068945;28;20196;-83
2022/08/10 15:12:15;;;;;;;4.10;1.17;;;;;;;;;;5054247;28;20200;-84
2022/08/10 15:15:25;;;;;;;50.95;3.85;;;;;;;;;;5065682;28;20226;-83
2022/08/10 15:18:30;;;;;;;23.35;2.00;;;;;;;;;;5053409;28;20214;-83
2022/08/10 15:21:38;;;;;;;31.92;4.93;;;;;;;;;;5053666;28;20176;-83
2022/08/10 15:25:03;;;;;;;2.42;1.10;;;;;;;;;;5064726;28;20222;-83
2022/08/10 15:28:12;;;;;;;20.92;1.58;;;;;;;;;;5065157;28;20638;-83
2022/08/10 15:31:19;;;;;;;5.22;1.38;;;;;;;;;;5053795;28;20176;-83
2022/08/10 15:37:49;;;;;;;36.85;3.40;;;;;;;;;;5064898;28;20184;-83
2022/08/10 15:40:55;;;;;;;69.10;4.35;;;;;;;;;;5053546;28;20205;-84
2022/08/10 15:43:59;;;;;;;10.45;1.70;;;;;;;;;;5060699;28;20683;-82
2022/08/10 15:47:11;;;;;;;11.70;1.38;;;;;;;;;;5080947;28;20193;-83
2022/08/10 15:50:25;;;;;;;2.03;1.83;;;;;;;;;;5066599;28;20181;-83
2022/08/10 15:53:36;;;;;;;3.45;1.05;;;;;;;;;;5064370;28;20182;-83
2022/08/10 15:56:43;;;;;;;10.13;1.42;;;;;;;;;;5064495;28;20687;-82
2022/08/10 16:00:00;;;;;;;73.10;7.50;;;;;;;;;;5064603;28;20211;-82
2022/08/10 16:03:40;;;;;;;4.07;1.00;;;;;;;;;;5052810;28;20182;-82
2022/08/10 16:07:05;;;;;;;23.27;2.40;;;;;;;;;;5064234;28;20176;-83
2022/08/10 16:10:14;;;;;;;14.55;1.52;;;;;;;;;;5064691;28;20173;-83
2022/08/10 16:13:19;;;;;;;6.90;1.35;;;;;;;;;;5064095;28;20182;-82
2022/08/10 16:16:30;;;;;;;29.20;3.28;;;;;;;;;;5074997;28;20197;-83
2022/08/10 16:19:44;;;;;;;2.70;1.98;;;;;;;;;;5087955;28;20206;-83
2022/08/10 16:22:54;;;;;;;4.00;1.65;;;;;;;;;;5072465;28;20641;-83
2022/08/10 16:26:01;;;;;;;3.87;1.40;;;;;;;;;;5095458;28;20562;-82
2022/08/10 16:29:21;;;;;;;9.80;2.03;;;;;;;;;;5084248;28;20170;-83
2022/08/10 16:32:27;;;;;;;22.80;2.70;;;;;;;;;;5072851;28;20191;-83
2022/08/10 16:35:34;;;;;;;17.48;1.60;;;;;;;;;;5072965;28;20225;-83
2022/08/10 16:38:41;;;;;;;2.53;1.43;;;;;;;;;;5093721;28;20194;-82
2022/08/10 16:41:47;;;;;;;1.50;1.13;;;;;;;;;;5072011;28;20179;-83
2022/08/10 16:45:13;;;;;;;181.50;12.27;;;;;;;;;;5072854;28;20208;-83
2022/08/10 16:48:21;;;;;;;6.67;1.30;;;;;;;;;;5083723;28;20205;-82
2022/08/10 16:51:26;;;;;;;2.50;1.17;;;;;;;;;;5095809;28;20194;-84
2022/08/10 16:54:33;;;;;;;148.53;11.67;;;;;;;;;;5052188;28;20217;-83
2022/08/10 16:57:39;;;;;;;5.63;1.17;;;;;;;;;;5071607;28;20200;-83
2022/08/10 17:00:45;;;;;;;4.47;1.17;;;;;;;;;;5083969;28;20207;-83
2022/08/10 17:03:55;;;;;;;1.37;1.03;;;;;;;;;;5083365;28;20184;-83
2022/08/10 17:07:06;;;;;;;4.23;1.20;;;;;;;;;;5072049;28;20181;-82
2022/08/10 17:10:18;;;;;;;1.73;1.20;;;;;;;;;;5082880;28;20196;-83
2022/08/10 17:13:26;;;;;;;4.50;1.30;;;;;;;;;;5051386;28;20196;-83
2022/08/10 17:16:35;;;;;;;1.67;1.20;;;;;;;;;;5052057;28;20199;-83
2022/08/10 17:19:43;;;;;;;6.17;1.33;;;;;;;;;;5063478;28;20208;-83
2022/08/10 17:22:49;;;;;;;1.97;1.30;;;;;;;;;;5073728;28;20190;-83
2022/08/10 17:25:59;;;;;;;2.77;1.20;;;;;;;;;;5082947;28;20213;-83
2022/08/10 17:29:15;;;;;;;13.27;1.80;;;;;;;;;;5072429;28;20213;-83
2022/08/10 17:32:24;;;;;;;2.77;1.67;;;;;;;;;;5082456;28;20186;-83
2022/08/10 17:35:34;;;;;;;4.20;1.27;;;;;;;;;;5071444;28;20224;-82
2022/08/10 17:38:39;;;;;;;1.67;1.40;;;;;;;;;;5082944;28;20182;-83
2022/08/10 17:41:48;;;;;;;1.53;1.03;;;;;;;;;;5074167;28;20203;-83
2022/08/10 17:44:54;;;;;;;203.20;10.60;;;;;;;;;;5082540;28;20561;-83
2022/08/10 17:48:04;;;;;;;16.40;3.07;;;;;;;;;;5094817;28;20192;-84
2022/08/10 17:51:14;;;;;;;1.93;1.40;;;;;;;;;;5062288;28;20170;-83
2022/08/10 17:54:26;;;;;;;4.30;1.57;;;;;;;;;;5050892;28;20220;-82
2022/08/10 17:57:36;;;;;;;1.70;1.30;;;;;;;;;;5062602;28;20195;-84
2022/08/10 18:01:01;;;;;;;8.63;1.60;;;;;;;;;;5076937;28;20213;-83
2022/08/10 18:04:12;;;;;;;6.07;1.40;;;;;;;;;;5071122;28;20184;-82
2022/08/10 18:07:20;;;;;;;3.93;1.30;;;;;;;;;;5082117;28;20192;-82
2022/08/10 18:10:25;;;;;;;1.77;1.10;;;;;;;;;;5070569;28;20183;-82
2022/08/10 18:13:33;;;;;;;1.63;1.40;;;;;;;;;;5082953;28;20175;-84
2022/08/10 18:16:39;;;;;;;2.90;1.47;;;;;;;;;;5093950;28;20180;-83
2022/08/10 18:19:46;;;;;;;1.30;1.20;;;;;;;;;;5082270;28;20204;-82
2022/08/10 18:22:51;;;;;;;3.07;1.23;;;;;;;;;;5082242;28;20626;-82
2022/08/10 18:26:03;;;;;;;14.03;2.00;;;;;;;;;;5065608;23;20224;-85
2022/08/10 18:29:15;;;;;;;2.80;1.30;;;;;;;;;;5044110;28;20193;-84
2022/08/10 18:32:23;;;;;;;74.40;5.13;;;;;;;;;;5009904;28;20197;-84
2022/08/10 18:35:28;;;;;;;1.80;1.23;;;;;;;;;;5022311;28;20212;-84
2022/08/10 18:38:35;;;;;;;3.67;1.13;;;;;;;;;;5021138;28;20196;-85
2022/08/10 18:41:43;;;;;;;3.87;1.60;;;;;;;;;;5032549;28;20193;-85
2022/08/10 18:44:53;;;;;;;3.20;1.23;;;;;;;;;;5047289;28;20679;-85
2022/08/10 18:48:03;;;;;;;2.43;1.30;;;;;;;;;;5013884;28;20177;-85
2022/08/10 18:51:10;;;;;;;4.37;1.53;;;;;;;;;;5013813;28;20671;-85
2022/08/10 18:54:19;;;;;;;4.57;1.27;;;;;;;;;;5036294;28;20176;-85
2022/08/10 18:57:59;;;;;;;2.87;1.60;;;;;;;;;;5024937;28;20671;-85
2022/08/10 19:01:16;;;;;;;2.30;1.40;;;;;;;;;;5025055;28;20671;-85
2022/08/10 19:04:43;;;;;;;3.13;1.50;;;;;;;;;;5024846;28;20185;-85
2022/08/10 19:08:17;;;;;;;4.57;1.20;;;;;;;;;;5024729;28;20177;-85